sensor_id;sensor_type;location;lat;lon;timestamp;P1;durP1;ratioP1;P2;durP2;ratioP2
5543;SDS011;2795;47.652;13.128;2023-03-14T00:00:56;9.17;;;2.60;;
5543;SDS011;2795;47.652;13.128;2023-03-14T00:03:23;6.13;;;2.10;;
5543;SDS011;2795;47.652;13.128;2023-03-14T00:05:49;5.07;;;2.20;;
5543;SDS011;2795;47.652;13.128;2023-03-14T00:08:16;5.63;;;2.10;;
5543;SDS011;2795;47.652;13.128;2023-03-14T00:10:44;9.27;;;2.40;;
5543;SDS011;2795;47.652;13.128;2023-03-14T00:13:10;7.53;;;2.20;;
5543;SDS011;2795;47.652;13.128;2023-03-14T00:15:37;8.87;;;2.43;;
5543;SDS011;2795;47.652;13.128;2023-03-14T00:18:03;7.40;;;2.70;;
5543;SDS011;2795;47.652;13.128;2023-03-14T00:20:30;7.97;;;2.60;;
5543;SDS011;2795;47.652;13.128;2023-03-14T00:22:57;6.93;;;2.53;;
5543;SDS011;2795;47.652;13.128;2023-03-14T00:25:23;9.60;;;2.60;;
5543;SDS011;2795;47.652;13.128;2023-03-14T00:27:50;11.23;;;3.07;;
5543;SDS011;2795;47.652;13.128;2023-03-14T00:30:18;5.97;;;2.57;;
5543;SDS011;2795;47.652;13.128;2023-03-14T00:32:45;6.30;;;2.13;;
5543;SDS011;2795;47.652;13.128;2023-03-14T00:35:11;9.00;;;2.50;;
5543;SDS011;2795;47.652;13.128;2023-03-14T00:37:38;7.83;;;2.53;;
5543;SDS011;2795;47.652;13.128;2023-03-14T00:40:05;13.33;;;3.23;;
5543;SDS011;2795;47.652;13.128;2023-03-14T00:42:33;17.47;;;3.73;;
5543;SDS011;2795;47.652;13.128;2023-03-14T00:45:00;7.97;;;2.53;;
5543;SDS011;2795;47.652;13.128;2023-03-14T00:47:27;15.00;;;2.60;;
5543;SDS011;2795;47.652;13.128;2023-03-14T00:49:54;8.93;;;2.77;;
5543;SDS011;2795;47.652;13.128;2023-03-14T00:52:20;4.67;;;2.40;;
5543;SDS011;2795;47.652;13.128;2023-03-14T00:54:47;6.80;;;2.63;;
5543;SDS011;2795;47.652;13.128;2023-03-14T00:57:13;7.63;;;2.77;;
5543;SDS011;2795;47.652;13.128;2023-03-14T00:59:40;7.63;;;2.87;;
5543;SDS011;2795;47.652;13.128;2023-03-14T01:02:06;7.20;;;3.07;;
5543;SDS011;2795;47.652;13.128;2023-03-14T01:04:33;7.07;;;2.43;;
5543;SDS011;2795;47.652;13.128;2023-03-14T01:07:00;8.13;;;2.87;;
5543;SDS011;2795;47.652;13.128;2023-03-14T01:09:27;7.10;;;2.40;;
5543;SDS011;2795;47.652;13.128;2023-03-14T01:11:54;9.73;;;2.50;;
5543;SDS011;2795;47.652;13.128;2023-03-14T01:14:20;5.10;;;2.20;;
5543;SDS011;2795;47.652;13.128;2023-03-14T01:16:47;8.80;;;2.60;;
5543;SDS011;2795;47.652;13.128;2023-03-14T01:19:13;10.10;;;2.70;;
5543;SDS011;2795;47.652;13.128;2023-03-14T01:21:40;8.00;;;2.63;;
5543;SDS011;2795;47.652;13.128;2023-03-14T01:24:07;12.80;;;2.50;;
5543;SDS011;2795;47.652;13.128;2023-03-14T01:26:34;7.93;;;2.80;;
5543;SDS011;2795;47.652;13.128;2023-03-14T01:29:01;7.90;;;2.53;;
5543;SDS011;2795;47.652;13.128;2023-03-14T01:31:28;10.70;;;2.70;;
5543;SDS011;2795;47.652;13.128;2023-03-14T01:33:55;8.53;;;2.87;;
5543;SDS011;2795;47.652;13.128;2023-03-14T01:36:21;5.63;;;2.23;;
5543;SDS011;2795;47.652;13.128;2023-03-14T01:38:48;11.67;;;2.70;;
5543;SDS011;2795;47.652;13.128;2023-03-14T01:41:16;5.77;;;2.60;;
5543;SDS011;2795;47.652;13.128;2023-03-14T01:43:47;8.30;;;2.57;;
5543;SDS011;2795;47.652;13.128;2023-03-14T01:46:18;7.03;;;2.30;;
5543;SDS011;2795;47.652;13.128;2023-03-14T01:51:44;7.50;;;2.67;;
5543;SDS011;2795;47.652;13.128;2023-03-14T01:54:54;9.60;;;2.80;;
5543;SDS011;2795;47.652;13.128;2023-03-14T01:57:23;7.33;;;2.40;;
5543;SDS011;2795;47.652;13.128;2023-03-14T02:00:07;5.13;;;2.30;;
5543;SDS011;2795;47.652;13.128;2023-03-14T02:02:43;8.90;;;2.87;;
5543;SDS011;2795;47.652;13.128;2023-03-14T02:05:12;5.33;;;2.23;;
5543;SDS011;2795;47.652;13.128;2023-03-14T02:07:49;6.50;;;2.70;;
5543;SDS011;2795;47.652;13.128;2023-03-14T02:10:22;7.73;;;2.50;;
5543;SDS011;2795;47.652;13.128;2023-03-14T02:12:52;5.30;;;2.50;;
5543;SDS011;2795;47.652;13.128;2023-03-14T02:15:19;4.40;;;2.27;;
5543;SDS011;2795;47.652;13.128;2023-03-14T02:17:46;14.23;;;3.20;;
5543;SDS011;2795;47.652;13.128;2023-03-14T02:22:40;8.90;;;3.13;;
5543;SDS011;2795;47.652;13.128;2023-03-14T02:25:27;10.27;;;3.50;;
5543;SDS011;2795;47.652;13.128;2023-03-14T02:28:00;3.17;;;2.33;;
5543;SDS011;2795;47.652;13.128;2023-03-14T02:30:29;7.30;;;2.70;;
5543;SDS011;2795;47.652;13.128;2023-03-14T02:32:59;9.13;;;3.07;;
5543;SDS011;2795;47.652;13.128;2023-03-14T02:35:28;7.50;;;2.73;;
5543;SDS011;2795;47.652;13.128;2023-03-14T02:40:50;6.97;;;2.50;;
5543;SDS011;2795;47.652;13.128;2023-03-14T02:43:17;6.33;;;2.40;;
5543;SDS011;2795;47.652;13.128;2023-03-14T02:45:44;7.20;;;2.30;;
5543;SDS011;2795;47.652;13.128;2023-03-14T02:48:16;10.83;;;3.07;;
5543;SDS011;2795;47.652;13.128;2023-03-14T02:50:46;8.90;;;3.20;;
5543;SDS011;2795;47.652;13.128;2023-03-14T02:53:16;11.83;;;3.00;;
5543;SDS011;2795;47.652;13.128;2023-03-14T02:55:46;6.10;;;2.40;;
5543;SDS011;2795;47.652;13.128;2023-03-14T02:58:16;6.80;;;3.00;;
5543;SDS011;2795;47.652;13.128;2023-03-14T03:00:43;10.90;;;3.30;;
5543;SDS011;2795;47.652;13.128;2023-03-14T03:03:10;5.93;;;2.67;;
5543;SDS011;2795;47.652;13.128;2023-03-14T03:05:37;8.70;;;2.70;;
5543;SDS011;2795;47.652;13.128;2023-03-14T03:08:04;6.33;;;2.60;;
5543;SDS011;2795;47.652;13.128;2023-03-14T03:10:31;22.90;;;4.40;;
5543;SDS011;2795;47.652;13.128;2023-03-14T03:12:58;6.40;;;2.60;;
5543;SDS011;2795;47.652;13.128;2023-03-14T03:15:25;12.70;;;3.40;;
5543;SDS011;2795;47.652;13.128;2023-03-14T03:17:52;12.63;;;3.43;;
5543;SDS011;2795;47.652;13.128;2023-03-14T03:20:19;8.57;;;3.37;;
5543;SDS011;2795;47.652;13.128;2023-03-14T03:22:45;13.50;;;3.53;;
5543;SDS011;2795;47.652;13.128;2023-03-14T03:25:12;8.57;;;3.13;;
5543;SDS011;2795;47.652;13.128;2023-03-14T03:27:39;10.50;;;3.07;;
5543;SDS011;2795;47.652;13.128;2023-03-14T03:30:05;10.80;;;3.53;;
5543;SDS011;2795;47.652;13.128;2023-03-14T03:32:34;8.80;;;2.97;;
5543;SDS011;2795;47.652;13.128;2023-03-14T03:35:01;6.80;;;2.63;;
5543;SDS011;2795;47.652;13.128;2023-03-14T03:37:32;6.13;;;2.90;;
5543;SDS011;2795;47.652;13.128;2023-03-14T03:39:59;6.10;;;2.90;;
5543;SDS011;2795;47.652;13.128;2023-03-14T03:42:27;12.03;;;3.27;;
5543;SDS011;2795;47.652;13.128;2023-03-14T03:44:54;5.93;;;2.80;;
5543;SDS011;2795;47.652;13.128;2023-03-14T03:47:20;5.33;;;2.70;;
5543;SDS011;2795;47.652;13.128;2023-03-14T03:49:47;5.70;;;2.57;;
5543;SDS011;2795;47.652;13.128;2023-03-14T03:52:13;10.97;;;3.37;;
5543;SDS011;2795;47.652;13.128;2023-03-14T03:54:40;8.37;;;3.03;;
5543;SDS011;2795;47.652;13.128;2023-03-14T03:57:06;12.23;;;3.20;;
5543;SDS011;2795;47.652;13.128;2023-03-14T03:59:33;6.97;;;3.20;;
5543;SDS011;2795;47.652;13.128;2023-03-14T04:02:00;5.90;;;2.73;;
5543;SDS011;2795;47.652;13.128;2023-03-14T04:04:27;7.67;;;2.93;;
5543;SDS011;2795;47.652;13.128;2023-03-14T04:06:53;6.80;;;2.83;;
5543;SDS011;2795;47.652;13.128;2023-03-14T04:09:20;9.87;;;3.33;;
5543;SDS011;2795;47.652;13.128;2023-03-14T04:11:47;15.33;;;4.10;;
5543;SDS011;2795;47.652;13.128;2023-03-14T04:14:13;12.27;;;3.50;;
5543;SDS011;2795;47.652;13.128;2023-03-14T04:16:40;12.57;;;3.00;;
5543;SDS011;2795;47.652;13.128;2023-03-14T04:19:07;10.17;;;3.17;;
5543;SDS011;2795;47.652;13.128;2023-03-14T04:21:33;9.10;;;3.37;;
5543;SDS011;2795;47.652;13.128;2023-03-14T04:24:00;5.83;;;2.77;;
5543;SDS011;2795;47.652;13.128;2023-03-14T04:26:27;9.23;;;3.13;;
5543;SDS011;2795;47.652;13.128;2023-03-14T04:28:53;17.73;;;4.90;;
5543;SDS011;2795;47.652;13.128;2023-03-14T04:31:20;6.67;;;2.87;;
5543;SDS011;2795;47.652;13.128;2023-03-14T04:33:47;6.97;;;2.77;;
5543;SDS011;2795;47.652;13.128;2023-03-14T04:36:14;11.13;;;3.40;;
5543;SDS011;2795;47.652;13.128;2023-03-14T04:38:41;8.27;;;3.23;;
5543;SDS011;2795;47.652;13.128;2023-03-14T04:41:07;11.50;;;3.53;;
5543;SDS011;2795;47.652;13.128;2023-03-14T04:43:34;8.17;;;3.10;;
5543;SDS011;2795;47.652;13.128;2023-03-14T04:46:01;4.23;;;2.40;;
5543;SDS011;2795;47.652;13.128;2023-03-14T04:48:28;13.43;;;3.20;;
5543;SDS011;2795;47.652;13.128;2023-03-14T04:50:55;8.10;;;2.60;;
5543;SDS011;2795;47.652;13.128;2023-03-14T04:53:21;4.87;;;2.50;;
5543;SDS011;2795;47.652;13.128;2023-03-14T04:55:52;8.30;;;2.70;;
5543;SDS011;2795;47.652;13.128;2023-03-14T04:58:20;11.33;;;3.00;;
5543;SDS011;2795;47.652;13.128;2023-03-14T05:00:47;8.10;;;2.77;;
5543;SDS011;2795;47.652;13.128;2023-03-14T05:03:14;12.60;;;3.77;;
5543;SDS011;2795;47.652;13.128;2023-03-14T05:05:41;9.63;;;2.87;;
5543;SDS011;2795;47.652;13.128;2023-03-14T05:08:09;11.27;;;3.53;;
5543;SDS011;2795;47.652;13.128;2023-03-14T05:10:36;7.40;;;2.70;;
5543;SDS011;2795;47.652;13.128;2023-03-14T05:13:02;9.80;;;3.93;;
5543;SDS011;2795;47.652;13.128;2023-03-14T05:15:29;7.50;;;3.00;;
5543;SDS011;2795;47.652;13.128;2023-03-14T05:17:56;6.20;;;2.80;;
5543;SDS011;2795;47.652;13.128;2023-03-14T05:20:25;9.47;;;3.07;;
5543;SDS011;2795;47.652;13.128;2023-03-14T05:22:52;7.03;;;2.83;;
5543;SDS011;2795;47.652;13.128;2023-03-14T05:25:18;6.60;;;2.30;;
5543;SDS011;2795;47.652;13.128;2023-03-14T05:27:45;7.47;;;2.70;;
5543;SDS011;2795;47.652;13.128;2023-03-14T05:30:12;13.30;;;3.23;;
5543;SDS011;2795;47.652;13.128;2023-03-14T05:32:38;6.87;;;2.90;;
5543;SDS011;2795;47.652;13.128;2023-03-14T05:35:05;12.07;;;3.97;;
5543;SDS011;2795;47.652;13.128;2023-03-14T05:37:32;12.27;;;4.53;;
5543;SDS011;2795;47.652;13.128;2023-03-14T05:40:00;14.87;;;5.00;;
5543;SDS011;2795;47.652;13.128;2023-03-14T05:42:27;9.63;;;4.23;;
5543;SDS011;2795;47.652;13.128;2023-03-14T05:44:54;9.43;;;3.80;;
5543;SDS011;2795;47.652;13.128;2023-03-14T05:47:20;11.77;;;3.97;;
5543;SDS011;2795;47.652;13.128;2023-03-14T05:49:47;12.47;;;4.30;;
5543;SDS011;2795;47.652;13.128;2023-03-14T05:52:14;13.87;;;4.90;;
5543;SDS011;2795;47.652;13.128;2023-03-14T05:54:41;14.83;;;4.50;;
5543;SDS011;2795;47.652;13.128;2023-03-14T05:57:07;16.10;;;3.70;;
5543;SDS011;2795;47.652;13.128;2023-03-14T05:59:34;7.17;;;3.17;;
5543;SDS011;2795;47.652;13.128;2023-03-14T06:02:01;14.13;;;4.50;;
5543;SDS011;2795;47.652;13.128;2023-03-14T06:04:27;12.27;;;3.70;;
5543;SDS011;2795;47.652;13.128;2023-03-14T06:06:54;12.60;;;4.10;;
5543;SDS011;2795;47.652;13.128;2023-03-14T06:09:20;13.63;;;5.03;;
5543;SDS011;2795;47.652;13.128;2023-03-14T06:11:49;10.70;;;5.53;;
5543;SDS011;2795;47.652;13.128;2023-03-14T06:14:16;15.93;;;5.33;;
5543;SDS011;2795;47.652;13.128;2023-03-14T06:16:43;13.03;;;5.50;;
5543;SDS011;2795;47.652;13.128;2023-03-14T06:19:10;12.37;;;4.97;;
5543;SDS011;2795;47.652;13.128;2023-03-14T06:21:38;12.10;;;4.70;;
5543;SDS011;2795;47.652;13.128;2023-03-14T06:24:04;12.67;;;6.00;;
5543;SDS011;2795;47.652;13.128;2023-03-14T06:26:31;10.67;;;6.10;;
5543;SDS011;2795;47.652;13.128;2023-03-14T06:28:58;13.77;;;5.70;;
5543;SDS011;2795;47.652;13.128;2023-03-14T06:31:30;14.00;;;6.07;;
5543;SDS011;2795;47.652;13.128;2023-03-14T06:33:56;11.30;;;5.33;;
5543;SDS011;2795;47.652;13.128;2023-03-14T06:36:23;27.17;;;6.03;;
5543;SDS011;2795;47.652;13.128;2023-03-14T06:38:50;11.70;;;5.13;;
5543;SDS011;2795;47.652;13.128;2023-03-14T06:41:17;14.47;;;5.00;;
5543;SDS011;2795;47.652;13.128;2023-03-14T06:43:43;23.17;;;7.40;;
5543;SDS011;2795;47.652;13.128;2023-03-14T06:46:10;19.17;;;7.23;;
5543;SDS011;2795;47.652;13.128;2023-03-14T06:48:36;13.87;;;6.20;;
5543;SDS011;2795;47.652;13.128;2023-03-14T06:51:03;16.50;;;5.00;;
5543;SDS011;2795;47.652;13.128;2023-03-14T06:53:30;25.47;;;7.00;;
5543;SDS011;2795;47.652;13.128;2023-03-14T06:55:56;15.87;;;5.80;;
5543;SDS011;2795;47.652;13.128;2023-03-14T06:58:23;18.00;;;7.10;;
5543;SDS011;2795;47.652;13.128;2023-03-14T07:00:49;15.30;;;6.40;;
5543;SDS011;2795;47.652;13.128;2023-03-14T07:03:16;15.30;;;6.80;;
5543;SDS011;2795;47.652;13.128;2023-03-14T07:05:42;19.67;;;8.13;;
5543;SDS011;2795;47.652;13.128;2023-03-14T07:08:09;14.53;;;6.80;;
5543;SDS011;2795;47.652;13.128;2023-03-14T07:10:36;18.47;;;7.27;;
5543;SDS011;2795;47.652;13.128;2023-03-14T07:13:03;21.33;;;7.30;;
5543;SDS011;2795;47.652;13.128;2023-03-14T07:15:30;20.13;;;6.23;;
5543;SDS011;2795;47.652;13.128;2023-03-14T07:17:56;17.03;;;7.33;;
5543;SDS011;2795;47.652;13.128;2023-03-14T07:20:23;11.40;;;5.37;;
5543;SDS011;2795;47.652;13.128;2023-03-14T07:22:50;16.33;;;6.80;;
5543;SDS011;2795;47.652;13.128;2023-03-14T07:25:17;22.93;;;8.57;;
5543;SDS011;2795;47.652;13.128;2023-03-14T07:27:44;24.40;;;7.73;;
5543;SDS011;2795;47.652;13.128;2023-03-14T07:30:11;14.70;;;6.70;;
5543;SDS011;2795;47.652;13.128;2023-03-14T07:32:38;11.87;;;5.30;;
5543;SDS011;2795;47.652;13.128;2023-03-14T07:35:05;26.40;;;9.27;;
5543;SDS011;2795;47.652;13.128;2023-03-14T07:37:32;57.30;;;21.20;;
5543;SDS011;2795;47.652;13.128;2023-03-14T07:39:58;25.13;;;9.50;;
5543;SDS011;2795;47.652;13.128;2023-03-14T07:42:25;12.87;;;6.00;;
5543;SDS011;2795;47.652;13.128;2023-03-14T07:44:52;9.63;;;4.77;;
5543;SDS011;2795;47.652;13.128;2023-03-14T07:47:18;13.50;;;5.23;;
5543;SDS011;2795;47.652;13.128;2023-03-14T07:49:45;13.23;;;6.90;;
5543;SDS011;2795;47.652;13.128;2023-03-14T07:52:12;19.90;;;9.10;;
5543;SDS011;2795;47.652;13.128;2023-03-14T07:54:39;15.30;;;7.10;;
5543;SDS011;2795;47.652;13.128;2023-03-14T07:57:05;19.93;;;8.27;;
5543;SDS011;2795;47.652;13.128;2023-03-14T07:59:32;33.27;;;17.90;;
5543;SDS011;2795;47.652;13.128;2023-03-14T08:01:58;17.47;;;6.60;;
5543;SDS011;2795;47.652;13.128;2023-03-14T08:04:25;23.17;;;10.40;;
5543;SDS011;2795;47.652;13.128;2023-03-14T08:06:53;15.20;;;5.20;;
5543;SDS011;2795;47.652;13.128;2023-03-14T08:09:20;14.10;;;6.50;;
5543;SDS011;2795;47.652;13.128;2023-03-14T08:11:47;28.83;;;14.23;;
5543;SDS011;2795;47.652;13.128;2023-03-14T08:14:13;14.93;;;5.90;;
5543;SDS011;2795;47.652;13.128;2023-03-14T08:16:40;9.67;;;4.30;;
5543;SDS011;2795;47.652;13.128;2023-03-14T08:19:06;11.97;;;4.77;;
5543;SDS011;2795;47.652;13.128;2023-03-14T08:21:33;16.80;;;6.00;;
5543;SDS011;2795;47.652;13.128;2023-03-14T08:24:00;12.90;;;6.60;;
5543;SDS011;2795;47.652;13.128;2023-03-14T08:26:27;20.10;;;6.77;;
5543;SDS011;2795;47.652;13.128;2023-03-14T08:28:53;11.43;;;4.90;;
5543;SDS011;2795;47.652;13.128;2023-03-14T08:31:20;6.80;;;4.07;;
5543;SDS011;2795;47.652;13.128;2023-03-14T08:33:47;20.03;;;7.70;;
5543;SDS011;2795;47.652;13.128;2023-03-14T08:36:13;19.27;;;6.37;;
5543;SDS011;2795;47.652;13.128;2023-03-14T08:38:40;13.10;;;7.00;;
5543;SDS011;2795;47.652;13.128;2023-03-14T08:41:09;29.47;;;11.70;;
5543;SDS011;2795;47.652;13.128;2023-03-14T08:43:36;21.40;;;9.70;;
5543;SDS011;2795;47.652;13.128;2023-03-14T08:46:03;22.30;;;12.10;;
5543;SDS011;2795;47.652;13.128;2023-03-14T08:48:30;36.40;;;16.23;;
5543;SDS011;2795;47.652;13.128;2023-03-14T08:51:03;35.50;;;16.57;;
5543;SDS011;2795;47.652;13.128;2023-03-14T08:53:34;45.33;;;21.90;;
5543;SDS011;2795;47.652;13.128;2023-03-14T08:56:00;39.97;;;15.50;;
5543;SDS011;2795;47.652;13.128;2023-03-14T08:58:27;34.20;;;14.77;;
5543;SDS011;2795;47.652;13.128;2023-03-14T09:00:54;40.30;;;16.03;;
5543;SDS011;2795;47.652;13.128;2023-03-14T09:03:20;40.97;;;18.37;;
5543;SDS011;2795;47.652;13.128;2023-03-14T09:05:49;29.37;;;14.07;;
5543;SDS011;2795;47.652;13.128;2023-03-14T09:08:17;12.30;;;5.40;;
5543;SDS011;2795;47.652;13.128;2023-03-14T09:10:43;21.27;;;10.57;;
5543;SDS011;2795;47.652;13.128;2023-03-14T09:13:10;23.60;;;9.67;;
5543;SDS011;2795;47.652;13.128;2023-03-14T09:15:37;9.30;;;2.90;;
5543;SDS011;2795;47.652;13.128;2023-03-14T09:18:03;7.33;;;2.37;;
5543;SDS011;2795;47.652;13.128;2023-03-14T09:20:30;6.40;;;2.03;;
5543;SDS011;2795;47.652;13.128;2023-03-14T09:22:57;14.67;;;3.13;;
5543;SDS011;2795;47.652;13.128;2023-03-14T09:25:23;4.57;;;1.77;;
5543;SDS011;2795;47.652;13.128;2023-03-14T09:27:50;7.23;;;2.03;;
5543;SDS011;2795;47.652;13.128;2023-03-14T09:30:16;11.27;;;2.60;;
5543;SDS011;2795;47.652;13.128;2023-03-14T09:32:43;6.00;;;1.80;;
5543;SDS011;2795;47.652;13.128;2023-03-14T09:35:10;10.30;;;2.60;;
5543;SDS011;2795;47.652;13.128;2023-03-14T09:37:36;9.33;;;2.33;;
5543;SDS011;2795;47.652;13.128;2023-03-14T09:40:03;4.07;;;1.63;;
5543;SDS011;2795;47.652;13.128;2023-03-14T09:42:36;5.67;;;3.00;;
5543;SDS011;2795;47.652;13.128;2023-03-14T09:45:05;15.57;;;5.47;;
5543;SDS011;2795;47.652;13.128;2023-03-14T09:47:33;12.37;;;4.47;;
5543;SDS011;2795;47.652;13.128;2023-03-14T09:50:03;5.83;;;2.90;;
5543;SDS011;2795;47.652;13.128;2023-03-14T09:52:31;10.90;;;5.40;;
5543;SDS011;2795;47.652;13.128;2023-03-14T09:54:59;13.90;;;6.23;;
5543;SDS011;2795;47.652;13.128;2023-03-14T09:57:29;5.50;;;1.83;;
5543;SDS011;2795;47.652;13.128;2023-03-14T10:00:06;6.03;;;1.80;;
5543;SDS011;2795;47.652;13.128;2023-03-14T10:02:42;8.63;;;2.20;;
5543;SDS011;2795;47.652;13.128;2023-03-14T10:05:16;8.73;;;1.97;;
5543;SDS011;2795;47.652;13.128;2023-03-14T10:07:44;9.30;;;3.23;;
5543;SDS011;2795;47.652;13.128;2023-03-14T10:10:21;16.07;;;3.80;;
5543;SDS011;2795;47.652;13.128;2023-03-14T10:12:56;6.53;;;2.27;;
5543;SDS011;2795;47.652;13.128;2023-03-14T10:15:26;10.83;;;2.73;;
5543;SDS011;2795;47.652;13.128;2023-03-14T10:17:58;8.60;;;2.90;;
5543;SDS011;2795;47.652;13.128;2023-03-14T10:20:44;6.20;;;2.13;;
5543;SDS011;2795;47.652;13.128;2023-03-14T10:25:41;9.20;;;2.70;;
5543;SDS011;2795;47.652;13.128;2023-03-14T10:30:52;6.20;;;1.83;;
5543;SDS011;2795;47.652;13.128;2023-03-14T10:33:21;4.13;;;1.50;;
5543;SDS011;2795;47.652;13.128;2023-03-14T10:35:57;5.90;;;1.73;;
5543;SDS011;2795;47.652;13.128;2023-03-14T10:38:29;8.83;;;2.27;;
5543;SDS011;2795;47.652;13.128;2023-03-14T10:41:00;18.33;;;3.97;;
5543;SDS011;2795;47.652;13.128;2023-03-14T10:43:33;10.87;;;3.87;;
5543;SDS011;2795;47.652;13.128;2023-03-14T10:46:06;9.60;;;4.53;;
5543;SDS011;2795;47.652;13.128;2023-03-14T10:48:36;7.77;;;3.50;;
5543;SDS011;2795;47.652;13.128;2023-03-14T10:51:11;7.17;;;2.30;;
5543;SDS011;2795;47.652;13.128;2023-03-14T10:56:19;6.47;;;1.70;;
5543;SDS011;2795;47.652;13.128;2023-03-14T10:58:48;5.13;;;1.80;;
5543;SDS011;2795;47.652;13.128;2023-03-14T11:06:36;6.43;;;1.77;;
5543;SDS011;2795;47.652;13.128;2023-03-14T11:15:25;9.83;;;2.23;;
5543;SDS011;2795;47.652;13.128;2023-03-14T11:29:31;7.30;;;2.10;;
5543;SDS011;2795;47.652;13.128;2023-03-14T11:32:01;17.63;;;3.77;;
5543;SDS011;2795;47.652;13.128;2023-03-14T11:34:29;6.60;;;2.40;;
5543;SDS011;2795;47.652;13.128;2023-03-14T11:37:36;7.23;;;2.27;;
5543;SDS011;2795;47.652;13.128;2023-03-14T11:40:19;8.10;;;2.47;;
5543;SDS011;2795;47.652;13.128;2023-03-14T11:42:50;7.77;;;2.40;;
5543;SDS011;2795;47.652;13.128;2023-03-14T11:45:32;5.60;;;2.00;;
5543;SDS011;2795;47.652;13.128;2023-03-14T11:48:16;5.80;;;2.10;;
5543;SDS011;2795;47.652;13.128;2023-03-14T11:50:47;6.03;;;2.20;;
5543;SDS011;2795;47.652;13.128;2023-03-14T11:53:18;13.07;;;2.60;;
5543;SDS011;2795;47.652;13.128;2023-03-14T11:55:47;11.00;;;2.57;;
5543;SDS011;2795;47.652;13.128;2023-03-14T12:00:47;33.73;;;10.97;;
5543;SDS011;2795;47.652;13.128;2023-03-14T12:08:40;12.93;;;6.00;;
5543;SDS011;2795;47.652;13.128;2023-03-14T12:11:17;10.47;;;4.40;;
5543;SDS011;2795;47.652;13.128;2023-03-14T12:13:54;9.40;;;3.90;;
5543;SDS011;2795;47.652;13.128;2023-03-14T12:18:51;15.10;;;5.63;;
5543;SDS011;2795;47.652;13.128;2023-03-14T12:21:19;33.47;;;13.83;;
5543;SDS011;2795;47.652;13.128;2023-03-14T12:23:52;49.80;;;20.43;;
5543;SDS011;2795;47.652;13.128;2023-03-14T12:26:24;16.73;;;7.50;;
5543;SDS011;2795;47.652;13.128;2023-03-14T12:34:01;13.53;;;4.50;;
5543;SDS011;2795;47.652;13.128;2023-03-14T12:39:20;9.70;;;4.50;;
5543;SDS011;2795;47.652;13.128;2023-03-14T12:42:04;8.90;;;3.20;;
5543;SDS011;2795;47.652;13.128;2023-03-14T12:49:43;6.03;;;2.77;;
5543;SDS011;2795;47.652;13.128;2023-03-14T12:52:14;13.37;;;3.50;;
5543;SDS011;2795;47.652;13.128;2023-03-14T12:54:47;6.03;;;2.57;;
5543;SDS011;2795;47.652;13.128;2023-03-14T12:59:52;9.80;;;2.80;;
5543;SDS011;2795;47.652;13.128;2023-03-14T13:02:59;6.87;;;2.27;;
5543;SDS011;2795;47.652;13.128;2023-03-14T13:05:19;11.33;;;2.67;;
5543;SDS011;2795;47.652;13.128;2023-03-14T13:15:39;9.17;;;2.67;;
5543;SDS011;2795;47.652;13.128;2023-03-14T13:18:14;9.27;;;2.87;;
5543;SDS011;2795;47.652;13.128;2023-03-14T13:26:23;5.40;;;1.80;;
5543;SDS011;2795;47.652;13.128;2023-03-14T13:28:53;11.00;;;2.10;;
5543;SDS011;2795;47.652;13.128;2023-03-14T13:31:21;6.67;;;2.07;;
5543;SDS011;2795;47.652;13.128;2023-03-14T13:33:56;6.73;;;2.10;;
5543;SDS011;2795;47.652;13.128;2023-03-14T13:36:27;8.23;;;3.17;;
5543;SDS011;2795;47.652;13.128;2023-03-14T13:38:57;7.50;;;2.07;;
5543;SDS011;2795;47.652;13.128;2023-03-14T13:41:24;10.90;;;1.83;;
5543;SDS011;2795;47.652;13.128;2023-03-14T13:43:52;4.90;;;1.70;;
5543;SDS011;2795;47.652;13.128;2023-03-14T13:46:25;10.43;;;2.67;;
5543;SDS011;2795;47.652;13.128;2023-03-14T13:48:53;5.57;;;1.87;;
5543;SDS011;2795;47.652;13.128;2023-03-14T13:51:23;3.33;;;1.43;;
5543;SDS011;2795;47.652;13.128;2023-03-14T13:53:52;5.97;;;2.23;;
5543;SDS011;2795;47.652;13.128;2023-03-14T13:56:20;7.30;;;2.13;;
5543;SDS011;2795;47.652;13.128;2023-03-14T13:58:49;2.83;;;1.40;;
5543;SDS011;2795;47.652;13.128;2023-03-14T14:01:20;6.40;;;1.90;;
5543;SDS011;2795;47.652;13.128;2023-03-14T14:03:55;4.30;;;1.63;;
5543;SDS011;2795;47.652;13.128;2023-03-14T14:06:27;6.90;;;1.87;;
5543;SDS011;2795;47.652;13.128;2023-03-14T14:08:56;3.63;;;1.30;;
5543;SDS011;2795;47.652;13.128;2023-03-14T14:14:28;7.23;;;2.03;;
5543;SDS011;2795;47.652;13.128;2023-03-14T14:16:55;7.83;;;2.20;;
5543;SDS011;2795;47.652;13.128;2023-03-14T14:19:25;4.80;;;1.67;;
5543;SDS011;2795;47.652;13.128;2023-03-14T14:21:54;7.90;;;2.07;;
5543;SDS011;2795;47.652;13.128;2023-03-14T14:24:20;13.17;;;2.90;;
5543;SDS011;2795;47.652;13.128;2023-03-14T14:26:53;10.37;;;2.40;;
5543;SDS011;2795;47.652;13.128;2023-03-14T14:29:23;9.27;;;2.10;;
5543;SDS011;2795;47.652;13.128;2023-03-14T14:34:44;6.00;;;1.77;;
5543;SDS011;2795;47.652;13.128;2023-03-14T14:37:32;10.63;;;2.33;;
5543;SDS011;2795;47.652;13.128;2023-03-14T14:40:06;7.43;;;1.97;;
5543;SDS011;2795;47.652;13.128;2023-03-14T14:42:43;7.30;;;2.27;;
5543;SDS011;2795;47.652;13.128;2023-03-14T14:45:12;9.97;;;2.40;;
5543;SDS011;2795;47.652;13.128;2023-03-14T14:47:54;10.00;;;2.30;;
5543;SDS011;2795;47.652;13.128;2023-03-14T14:50:36;7.03;;;1.90;;
5543;SDS011;2795;47.652;13.128;2023-03-14T14:53:19;8.43;;;2.33;;
5543;SDS011;2795;47.652;13.128;2023-03-14T14:55:57;5.97;;;1.60;;
5543;SDS011;2795;47.652;13.128;2023-03-14T14:58:29;6.63;;;1.80;;
5543;SDS011;2795;47.652;13.128;2023-03-14T15:03:31;10.63;;;2.33;;
5543;SDS011;2795;47.652;13.128;2023-03-14T15:05:58;7.30;;;2.70;;
5543;SDS011;2795;47.652;13.128;2023-03-14T15:08:25;11.77;;;3.17;;
5543;SDS011;2795;47.652;13.128;2023-03-14T15:10:52;4.20;;;1.90;;
5543;SDS011;2795;47.652;13.128;2023-03-14T15:13:20;6.43;;;2.13;;
5543;SDS011;2795;47.652;13.128;2023-03-14T15:15:47;5.50;;;2.30;;
5543;SDS011;2795;47.652;13.128;2023-03-14T15:18:15;9.83;;;2.20;;
5543;SDS011;2795;47.652;13.128;2023-03-14T15:20:43;4.97;;;1.70;;
5543;SDS011;2795;47.652;13.128;2023-03-14T15:23:14;8.97;;;2.60;;
5543;SDS011;2795;47.652;13.128;2023-03-14T15:25:42;4.00;;;2.20;;
5543;SDS011;2795;47.652;13.128;2023-03-14T15:28:22;8.50;;;3.93;;
5543;SDS011;2795;47.652;13.128;2023-03-14T15:30:50;6.53;;;3.37;;
5543;SDS011;2795;47.652;13.128;2023-03-14T15:33:19;12.57;;;3.40;;
5543;SDS011;2795;47.652;13.128;2023-03-14T15:35:46;12.20;;;3.00;;
5543;SDS011;2795;47.652;13.128;2023-03-14T15:38:22;7.73;;;2.40;;
5543;SDS011;2795;47.652;13.128;2023-03-14T15:40:50;7.67;;;2.53;;
5543;SDS011;2795;47.652;13.128;2023-03-14T15:43:17;6.10;;;1.80;;
5543;SDS011;2795;47.652;13.128;2023-03-14T15:45:44;7.77;;;1.97;;
5543;SDS011;2795;47.652;13.128;2023-03-14T15:48:12;9.80;;;2.93;;
5543;SDS011;2795;47.652;13.128;2023-03-14T15:50:42;4.97;;;2.33;;
5543;SDS011;2795;47.652;13.128;2023-03-14T15:53:09;11.50;;;3.20;;
5543;SDS011;2795;47.652;13.128;2023-03-14T15:55:36;9.90;;;3.13;;
5543;SDS011;2795;47.652;13.128;2023-03-14T15:58:05;11.53;;;3.30;;
5543;SDS011;2795;47.652;13.128;2023-03-14T16:00:32;10.90;;;4.27;;
5543;SDS011;2795;47.652;13.128;2023-03-14T16:02:59;10.17;;;3.63;;
5543;SDS011;2795;47.652;13.128;2023-03-14T16:05:26;17.23;;;3.67;;
5543;SDS011;2795;47.652;13.128;2023-03-14T16:07:52;9.17;;;2.77;;
5543;SDS011;2795;47.652;13.128;2023-03-14T16:10:19;6.33;;;2.50;;
5543;SDS011;2795;47.652;13.128;2023-03-14T16:12:46;5.50;;;1.83;;
5543;SDS011;2795;47.652;13.128;2023-03-14T16:15:12;6.43;;;2.57;;
5543;SDS011;2795;47.652;13.128;2023-03-14T16:17:39;11.23;;;2.90;;
5543;SDS011;2795;47.652;13.128;2023-03-14T16:20:09;9.57;;;2.70;;
5543;SDS011;2795;47.652;13.128;2023-03-14T16:22:36;10.33;;;4.10;;
5543;SDS011;2795;47.652;13.128;2023-03-14T16:25:03;11.77;;;3.70;;
5543;SDS011;2795;47.652;13.128;2023-03-14T16:27:31;10.13;;;3.10;;
5543;SDS011;2795;47.652;13.128;2023-03-14T16:29:58;10.40;;;3.70;;
5543;SDS011;2795;47.652;13.128;2023-03-14T16:32:28;11.17;;;3.60;;